Time;durP1;ratioP1;P1;durP2;ratioP2;P2;SDS_P1;SDS_P2;PMS_P1;PMS_P2;Temp;Humidity;BMP_temperature;BMP_pressure;BME280_temperature;BME280_humidity;BME280_pressure;Samples;Min_cycle;Max_cycle;Signal;HPM_P1;HPM_P2
2023/04/10 00:01:34;;;;;;;26.35;14.95;;;;;;;;;;5020080;28;20045;-73
2023/04/10 00:04:00;;;;;;;27.23;16.65;;;;;;;;;;5021334;28;20136;-73
2023/04/10 00:06:27;;;;;;;30.10;15.98;;;;;;;;;;5021557;28;20095;-71
2023/04/10 00:08:52;;;;;;;33.58;17.02;;;;;;;;;;5020921;28;20103;-71
2023/04/10 00:11:18;;;;;;;25.92;14.65;;;;;;;;;;5020425;28;20433;-72
2023/04/10 00:13:43;;;;;;;26.10;15.75;;;;;;;;;;5021658;28;21238;-72
2023/04/10 00:16:09;;;;;;;25.73;14.90;;;;;;;;;;5022051;28;20045;-72
2023/04/10 00:18:35;;;;;;;28.83;15.70;;;;;;;;;;5021225;28;20057;-72
2023/04/10 00:21:02;;;;;;;25.00;14.23;;;;;;;;;;5021009;28;20111;-72
2023/04/10 00:23:30;;;;;;;27.70;15.20;;;;;;;;;;5021246;28;20148;-72
2023/04/10 00:25:56;;;;;;;25.00;14.30;;;;;;;;;;5021188;28;20049;-72
2023/04/10 00:28:21;;;;;;;24.60;15.48;;;;;;;;;;5020080;28;20043;-72
2023/04/10 00:30:47;;;;;;;27.60;15.07;;;;;;;;;;5020430;28;20046;-71
2023/04/10 00:33:13;;;;;;;23.73;13.73;;;;;;;;;;5020490;28;20045;-71
2023/04/10 00:35:38;;;;;;;28.60;15.25;;;;;;;;;;5021234;28;20061;-71
2023/04/10 00:38:04;;;;;;;28.63;16.50;;;;;;;;;;5019999;28;20180;-71
2023/04/10 00:40:29;;;;;;;29.50;16.23;;;;;;;;;;5019591;28;20041;-72
2023/04/10 00:42:54;;;;;;;31.65;17.65;;;;;;;;;;5021172;28;20045;-72
2023/04/10 00:45:20;;;;;;;33.83;17.30;;;;;;;;;;5021549;28;20797;-72
2023/04/10 00:47:45;;;;;;;30.95;17.02;;;;;;;;;;5021973;28;20052;-72
2023/04/10 00:50:11;;;;;;;30.52;16.48;;;;;;;;;;5021651;28;20052;-72
2023/04/10 00:52:37;;;;;;;31.05;17.25;;;;;;;;;;5019355;28;20457;-72
2023/04/10 00:55:03;;;;;;;30.58;16.77;;;;;;;;;;5018577;28;20041;-72
2023/04/10 00:57:28;;;;;;;30.35;16.65;;;;;;;;;;5020823;28;20494;-72
2023/04/10 00:59:54;;;;;;;31.13;15.82;;;;;;;;;;5020501;28;20128;-73
2023/04/10 01:02:20;;;;;;;30.63;16.65;;;;;;;;;;5020236;28;20169;-72
2023/04/10 01:04:46;;;;;;;29.20;15.70;;;;;;;;;;5017392;28;20063;-73
2023/04/10 01:07:41;;;;;;;31.10;16.17;;;;;;;;;;5020453;28;20413;-73
2023/04/10 01:10:31;;;;;;;29.75;16.55;;;;;;;;;;5019229;28;20045;-72
2023/04/10 01:13:20;;;;;;;30.85;16.48;;;;;;;;;;5018475;28;20604;-72
2023/04/10 01:16:13;;;;;;;34.35;19.05;;;;;;;;;;5018440;28;20977;-73
2023/04/10 01:19:29;;;;;;;35.33;17.77;;;;;;;;;;5008925;28;20420;-72
2023/04/10 01:21:55;;;;;;;26.92;15.43;;;;;;;;;;4971110;28;20066;-73
2023/04/10 01:24:41;;;;;;;30.33;16.20;;;;;;;;;;5016249;28;20041;-72
2023/04/10 01:27:25;;;;;;;31.73;16.95;;;;;;;;;;4989323;28;20045;-72
2023/04/10 01:29:55;;;;;;;29.65;16.67;;;;;;;;;;5018725;28;20045;-72
2023/04/10 01:32:21;;;;;;;31.42;17.00;;;;;;;;;;5020291;28;20054;-71
2023/04/10 01:34:50;;;;;;;30.48;17.55;;;;;;;;;;5018120;28;20045;-73
2023/04/10 01:37:22;;;;;;;32.53;16.67;;;;;;;;;;5017639;28;20068;-75
2023/04/10 01:39:57;;;;;;;;;;;;;;;;;;5017126;28;20107;-73
2023/04/10 01:42:24;;;;;;;30.50;15.98;;;;;;;;;;5022388;28;19920;-74
2023/04/10 01:44:52;;;;;;;28.20;15.40;;;;;;;;;;5021997;28;20050;-74
2023/04/10 01:47:18;;;;;;;26.95;15.20;;;;;;;;;;5023239;28;20141;-73
2023/04/10 01:49:47;;;;;;;29.40;16.63;;;;;;;;;;5022522;28;20046;-74
2023/04/10 01:52:15;;;;;;;31.50;15.93;;;;;;;;;;5022333;28;20510;-73
2023/04/10 01:54:47;;;;;;;29.27;16.33;;;;;;;;;;5021878;28;20033;-75
2023/04/10 01:57:16;;;;;;;29.75;14.82;;;;;;;;;;5021685;28;20061;-75
2023/04/10 01:59:51;;;;;;;27.83;15.05;;;;;;;;;;5007476;28;20076;-75
2023/04/10 02:02:16;;;;;;;22.70;13.25;;;;;;;;;;5022450;28;20080;-74
2023/04/10 02:04:42;;;;;;;25.35;13.65;;;;;;;;;;5023261;28;20072;-75
2023/04/10 02:07:10;;;;;;;25.10;14.40;;;;;;;;;;5022446;28;20049;-75
2023/04/10 02:10:02;;;;;;;22.65;14.00;;;;;;;;;;5023384;28;20041;-74
2023/04/10 02:12:31;;;;;;;21.98;12.50;;;;;;;;;;5022230;28;20052;-73
2023/04/10 02:15:00;;;;;;;26.45;16.02;;;;;;;;;;5021741;28;20692;-73
2023/04/10 02:17:29;;;;;;;22.20;12.20;;;;;;;;;;5023539;28;20986;-73
2023/04/10 02:19:58;;;;;;;17.38;10.45;;;;;;;;;;5022310;28;20052;-73
2023/04/10 02:22:24;;;;;;;21.58;12.88;;;;;;;;;;5023446;28;20045;-73
2023/04/10 02:24:50;;;;;;;26.15;14.57;;;;;;;;;;5022594;28;20060;-72
2023/04/10 02:27:27;;;;;;;21.15;12.90;;;;;;;;;;5024189;28;20479;-72
2023/04/10 02:29:52;;;;;;;25.83;13.90;;;;;;;;;;5023613;28;20045;-72
2023/04/10 02:32:18;;;;;;;21.85;12.70;;;;;;;;;;5022379;28;20843;-74
2023/04/10 02:34:45;;;;;;;22.70;12.63;;;;;;;;;;5022422;28;20046;-74
2023/04/10 02:37:10;;;;;;;21.67;12.55;;;;;;;;;;5023435;28;20045;-74
2023/04/10 02:39:36;;;;;;;20.30;11.30;;;;;;;;;;5021707;28;20379;-74
2023/04/10 02:42:01;;;;;;;22.40;12.48;;;;;;;;;;5022338;28;20045;-74
2023/04/10 02:44:26;;;;;;;20.23;12.13;;;;;;;;;;5022704;28;20113;-74
2023/04/10 02:46:52;;;;;;;23.67;11.32;;;;;;;;;;5022582;28;20106;-75
2023/04/10 02:49:19;;;;;;;18.35;10.65;;;;;;;;;;5021776;28;20045;-74
2023/04/10 02:51:44;;;;;;;17.33;10.68;;;;;;;;;;5021531;28;20061;-76
2023/04/10 02:54:10;;;;;;;17.02;10.50;;;;;;;;;;5020535;28;20049;-74
2023/04/10 02:56:37;;;;;;;19.35;11.23;;;;;;;;;;5021045;28;20556;-74
2023/04/10 02:59:02;;;;;;;15.95;10.68;;;;;;;;;;5021625;28;20041;-74
2023/04/10 03:01:29;;;;;;;16.77;10.75;;;;;;;;;;5021412;28;20042;-74
2023/04/10 03:03:56;;;;;;;16.23;10.48;;;;;;;;;;5020422;28;20049;-75
2023/04/10 03:06:32;;;;;;;16.23;10.25;;;;;;;;;;5021480;28;20461;-75
2023/04/10 03:08:58;;;;;;;15.93;10.27;;;;;;;;;;5021273;28;20056;-74
2023/04/10 03:11:25;;;;;;;16.85;9.75;;;;;;;;;;5021299;28;20123;-76
2023/04/10 03:13:51;;;;;;;19.42;11.07;;;;;;;;;;5022533;28;20748;-74
2023/04/10 03:16:17;;;;;;;16.95;9.27;;;;;;;;;;5021731;28;20505;-74
2023/04/10 03:18:43;;;;;;;14.95;9.93;;;;;;;;;;5037307;28;20044;-72
2023/04/10 03:21:09;;;;;;;21.48;11.45;;;;;;;;;;5022509;28;20045;-72
2023/04/10 03:23:35;;;;;;;18.63;10.70;;;;;;;;;;5022739;28;20041;-74
2023/04/10 03:26:01;;;;;;;18.92;11.18;;;;;;;;;;5020037;28;20041;-73
2023/04/10 03:28:28;;;;;;;21.85;12.35;;;;;;;;;;5022335;28;20490;-74
2023/04/10 03:30:54;;;;;;;21.73;12.32;;;;;;;;;;5021685;28;20053;-74
2023/04/10 03:33:20;;;;;;;18.70;11.30;;;;;;;;;;5020512;28;20509;-73
2023/04/10 03:35:46;;;;;;;21.77;11.43;;;;;;;;;;5020953;28;20036;-73
2023/04/10 03:38:12;;;;;;;20.80;11.32;;;;;;;;;;5020007;28;20096;-73
2023/04/10 03:40:37;;;;;;;19.35;11.75;;;;;;;;;;5019966;28;20041;-73
2023/04/10 03:43:05;;;;;;;17.48;10.05;;;;;;;;;;5020609;28;20513;-73
2023/04/10 03:45:33;;;;;;;18.35;10.70;;;;;;;;;;5004195;28;20061;-73
2023/04/10 03:47:58;;;;;;;18.58;10.93;;;;;;;;;;5020083;28;20379;-73
2023/04/10 03:50:24;;;;;;;18.67;10.70;;;;;;;;;;5019481;28;20774;-75
2023/04/10 03:52:55;;;;;;;17.95;10.98;;;;;;;;;;5020447;28;20128;-73
2023/04/10 03:55:22;;;;;;;19.60;11.52;;;;;;;;;;5021019;28;20056;-73
2023/04/10 03:57:49;;;;;;;21.63;12.25;;;;;;;;;;5020501;28;20140;-74
2023/04/10 04:00:17;;;;;;;24.35;12.02;;;;;;;;;;5019464;28;20823;-72
2023/04/10 04:02:46;;;;;;;20.00;12.15;;;;;;;;;;5020971;28;20104;-72
2023/04/10 04:05:17;;;;;;;21.90;12.88;;;;;;;;;;5005696;28;20042;-72
2023/04/10 04:07:47;;;;;;;19.80;11.75;;;;;;;;;;5021070;28;20041;-72
2023/04/10 04:10:29;;;;;;;21.17;11.98;;;;;;;;;;5019269;28;20499;-71
2023/04/10 04:13:20;;;;;;;22.08;12.70;;;;;;;;;;4998429;28;20449;-71
2023/04/10 04:16:07;;;;;;;23.20;12.13;;;;;;;;;;5021169;28;20056;-71
2023/04/10 04:18:55;;;;;;;20.45;11.75;;;;;;;;;;5020523;28;20061;-72
2023/04/10 04:21:28;;;;;;;19.40;11.75;;;;;;;;;;5019139;28;20045;-72
2023/04/10 04:24:05;;;;;;;20.77;11.70;;;;;;;;;;5019938;28;20045;-71
2023/04/10 04:26:50;;;;;;;18.73;12.52;;;;;;;;;;5019921;28;20817;-72
2023/04/10 04:29:34;;;;;;;28.00;14.02;;;;;;;;;;5020105;28;20049;-71
2023/04/10 04:32:07;;;;;;;22.85;13.38;;;;;;;;;;5017929;28;20088;-71
2023/04/10 04:34:59;;;;;;;22.73;14.13;;;;;;;;;;5013103;28;20049;-73
2023/04/10 04:37:40;;;;;;;25.40;14.37;;;;;;;;;;5007989;28;20288;-73
2023/04/10 04:40:35;;;;;;;26.15;14.45;;;;;;;;;;5006854;28;20291;-73
2023/04/10 04:43:09;;;;;;;21.98;12.80;;;;;;;;;;5018553;28;20045;-71
2023/04/10 04:45:51;;;;;;;28.30;13.77;;;;;;;;;;5019255;28;20511;-70
2023/04/10 04:48:35;;;;;;;23.25;12.85;;;;;;;;;;5020664;28;20052;-71
2023/04/10 04:51:19;;;;;;;22.20;13.88;;;;;;;;;;5019352;28;20080;-72
2023/04/10 04:53:51;;;;;;;30.42;15.88;;;;;;;;;;5018128;28;20055;-72
2023/04/10 04:56:36;;;;;;;36.17;17.27;;;;;;;;;;5018870;28;20402;-72
2023/04/10 04:59:08;;;;;;;32.25;16.02;;;;;;;;;;5003516;28;20045;-71
2023/04/10 05:01:55;;;;;;;29.23;14.55;;;;;;;;;;5019252;28;20095;-70
2023/04/10 05:04:34;;;;;;;29.67;14.23;;;;;;;;;;5018977;28;20179;-70
2023/04/10 05:07:09;;;;;;;21.58;13.07;;;;;;;;;;5019292;28;20041;-71
2023/04/10 05:10:05;;;;;;;17.50;10.02;;;;;;;;;;4999847;28;20057;-70
2023/04/10 05:12:47;;;;;;;18.70;11.18;;;;;;;;;;5017610;28;20053;-70
2023/04/10 05:15:21;;;;;;;18.58;10.15;;;;;;;;;;5016995;28;20041;-70
2023/04/10 05:18:07;;;;;;;22.70;11.90;;;;;;;;;;5018616;28;20080;-69
2023/04/10 05:20:53;;;;;;;20.75;10.85;;;;;;;;;;5017533;28;20077;-71
2023/04/10 05:23:33;;;;;;;25.10;13.75;;;;;;;;;;5018270;28;20060;-71
2023/04/10 05:26:13;;;;;;;25.02;13.00;;;;;;;;;;5017747;28;20037;-70
2023/04/10 05:29:14;;;;;;;19.45;11.00;;;;;;;;;;4944921;28;20114;-70
2023/04/10 05:31:58;;;;;;;18.77;11.60;;;;;;;;;;5012145;28;20056;-70
2023/04/10 05:34:38;;;;;;;18.85;11.30;;;;;;;;;;5017594;28;20072;-69
2023/04/10 05:37:11;;;;;;;;;;;;;;;;;;5017427;28;20852;-69
2023/04/10 05:40:00;;;;;;;16.98;10.88;;;;;;;;;;4998062;28;20027;-70
2023/04/10 05:42:25;;;;;;;16.50;10.65;;;;;;;;;;5019637;28;20152;-69
2023/04/10 05:45:09;;;;;;;19.77;10.43;;;;;;;;;;5016096;28;20829;-70
2023/04/10 05:47:54;;;;;;;14.02;9.70;;;;;;;;;;5018120;28;20049;-70
2023/04/10 05:50:46;;;;;;;16.93;10.30;;;;;;;;;;4991928;28;20119;-70
2023/04/10 05:53:35;;;;;;;14.27;9.48;;;;;;;;;;5018610;28;20290;-70
2023/04/10 05:56:23;;;;;;;14.95;10.52;;;;;;;;;;5018931;28;20040;-70
2023/04/10 05:59:12;;;;;;;13.98;9.75;;;;;;;;;;4990310;28;20052;-70
2023/04/10 06:01:56;;;;;;;17.58;9.30;;;;;;;;;;5017156;28;20257;-70
2023/04/10 06:04:22;;;;;;;13.90;9.63;;;;;;;;;;5017144;28;20041;-70
2023/04/10 06:06:51;;;;;;;13.07;9.20;;;;;;;;;;5017099;28;20515;-70
2023/04/10 06:09:16;;;;;;;13.98;8.88;;;;;;;;;;5018038;28;20045;-70
2023/04/10 06:11:42;;;;;;;11.50;8.82;;;;;;;;;;5017342;28;20034;-70
2023/04/10 06:14:08;;;;;;;11.68;8.88;;;;;;;;;;5027765;28;20038;-71
2023/04/10 06:16:42;;;;;;;11.10;7.85;;;;;;;;;;5015067;28;20409;-70
2023/04/10 06:19:07;;;;;;;12.63;8.32;;;;;;;;;;5034224;28;20041;-70
2023/04/10 06:21:34;;;;;;;12.35;8.70;;;;;;;;;;5028497;28;20046;-71
2023/04/10 06:24:00;;;;;;;12.02;8.82;;;;;;;;;;5015470;28;20056;-69
2023/04/10 06:26:26;;;;;;;12.85;9.15;;;;;;;;;;5017052;28;20402;-71
2023/04/10 06:28:51;;;;;;;11.05;8.40;;;;;;;;;;5035679;28;20045;-69
2023/04/10 06:31:20;;;;;;;13.15;8.13;;;;;;;;;;5018127;28;20053;-70
2023/04/10 06:33:50;;;;;;;10.98;7.75;;;;;;;;;;5000697;28;20072;-70
2023/04/10 06:36:16;;;;;;;11.77;6.25;;;;;;;;;;5034425;28;20042;-72
2023/04/10 06:38:46;;;;;;;10.55;7.07;;;;;;;;;;5017962;28;20037;-70
2023/04/10 06:41:12;;;;;;;10.88;7.15;;;;;;;;;;5016430;28;20042;-70
2023/04/10 06:43:38;;;;;;;9.30;6.45;;;;;;;;;;5019597;28;20049;-71
2023/04/10 06:46:04;;;;;;;10.32;7.55;;;;;;;;;;5020544;28;20045;-71
2023/04/10 06:48:31;;;;;;;8.30;6.60;;;;;;;;;;5019496;28;20045;-71
2023/04/10 06:50:59;;;;;;;9.95;6.82;;;;;;;;;;5020414;28;20057;-71
2023/04/10 06:53:25;;;;;;;7.75;5.93;;;;;;;;;;5021141;28;20045;-69
2023/04/10 06:55:50;;;;;;;9.02;6.60;;;;;;;;;;5019152;28;20045;-71
2023/04/10 06:58:16;;;;;;;8.77;6.47;;;;;;;;;;5021700;28;20050;-70
2023/04/10 07:00:41;;;;;;;8.35;6.32;;;;;;;;;;5019555;28;20064;-71
2023/04/10 07:03:07;;;;;;;7.55;5.80;;;;;;;;;;5020989;28;20041;-73
2023/04/10 07:05:32;;;;;;;6.22;5.43;;;;;;;;;;5019132;28;20042;-70
2023/04/10 07:07:58;;;;;;;7.93;6.32;;;;;;;;;;5020484;28;20545;-70
2023/04/10 07:10:23;;;;;;;7.70;6.00;;;;;;;;;;5020822;28;20038;-70
2023/04/10 07:12:49;;;;;;;7.28;5.43;;;;;;;;;;5018514;28;20081;-68
2023/04/10 07:15:15;;;;;;;8.27;5.93;;;;;;;;;;5019629;28;20052;-70
2023/04/10 07:17:40;;;;;;;9.73;6.32;;;;;;;;;;5018601;28;20049;-71
2023/04/10 07:20:06;;;;;;;8.32;6.15;;;;;;;;;;5020098;28;20095;-70
2023/04/10 07:22:32;;;;;;;9.90;6.38;;;;;;;;;;5020103;28;20046;-73
2023/04/10 07:24:57;;;;;;;8.52;6.53;;;;;;;;;;5020069;28;20103;-70
2023/04/10 07:27:23;;;;;;;9.02;6.57;;;;;;;;;;5019562;28;20049;-68
2023/04/10 07:29:49;;;;;;;7.90;5.97;;;;;;;;;;5020581;28;20045;-71
2023/04/10 07:32:15;;;;;;;9.80;7.10;;;;;;;;;;5020204;28;21204;-71
2023/04/10 07:34:41;;;;;;;9.98;7.40;;;;;;;;;;5019724;28;20037;-69
2023/04/10 07:37:06;;;;;;;9.85;7.43;;;;;;;;;;5020244;28;20049;-71
2023/04/10 07:39:32;;;;;;;8.38;7.07;;;;;;;;;;5035857;28;20103;-71
2023/04/10 07:41:57;;;;;;;9.02;6.78;;;;;;;;;;5021587;28;20033;-71
2023/04/10 07:44:25;;;;;;;7.32;5.85;;;;;;;;;;5021769;28;20132;-70
2023/04/10 07:46:51;;;;;;;9.50;6.40;;;;;;;;;;5020963;28;20041;-71
2023/04/10 07:49:16;;;;;;;9.05;6.05;;;;;;;;;;5020812;28;20049;-71
2023/04/10 07:51:42;;;;;;;7.78;5.65;;;;;;;;;;5021575;28;20037;-71
2023/04/10 07:54:07;;;;;;;7.18;5.25;;;;;;;;;;5021086;28;20046;-70
2023/04/10 07:56:32;;;;;;;6.97;5.38;;;;;;;;;;5021238;28;20037;-73
2023/04/10 07:58:59;;;;;;;6.90;5.50;;;;;;;;;;5019913;28;20071;-71
2023/04/10 08:01:26;;;;;;;6.20;5.20;;;;;;;;;;5020453;28;20041;-71
2023/04/10 08:03:52;;;;;;;7.88;5.13;;;;;;;;;;5021255;28;20976;-70
2023/04/10 08:06:17;;;;;;;5.70;4.68;;;;;;;;;;5021799;28;20071;-71
2023/04/10 08:08:42;;;;;;;5.70;5.10;;;;;;;;;;5021010;28;20041;-71
2023/04/10 08:11:23;;;;;;;5.38;4.60;;;;;;;;;;5020772;28;20504;-69
2023/04/10 08:13:50;;;;;;;6.82;5.68;;;;;;;;;;5020282;28;20489;-70
2023/04/10 08:16:15;;;;;;;7.75;5.55;;;;;;;;;;5021570;28;20490;-70
2023/04/10 08:18:41;;;;;;;7.00;5.63;;;;;;;;;;5020972;28;20068;-71
2023/04/10 08:21:06;;;;;;;6.55;5.70;;;;;;;;;;5021272;28;20045;-70
2023/04/10 08:23:32;;;;;;;8.25;5.78;;;;;;;;;;5018714;28;20112;-69
2023/04/10 08:25:57;;;;;;;7.32;5.78;;;;;;;;;;5021004;28;20045;-70
2023/04/10 08:28:23;;;;;;;8.10;6.47;;;;;;;;;;5021467;28;20517;-70
2023/04/10 08:30:48;;;;;;;9.57;6.32;;;;;;;;;;5020492;28;20087;-69
2023/04/10 08:33:14;;;;;;;9.98;7.25;;;;;;;;;;5019979;28;20469;-70
2023/04/10 08:35:39;;;;;;;8.60;6.88;;;;;;;;;;5021095;28;20103;-70
2023/04/10 08:38:05;;;;;;;8.93;6.28;;;;;;;;;;5021102;28;20099;-70
2023/04/10 08:40:30;;;;;;;7.10;5.97;;;;;;;;;;5021131;28;20041;-69
2023/04/10 08:42:56;;;;;;;7.55;5.82;;;;;;;;;;5020396;28;20904;-70
2023/04/10 08:45:21;;;;;;;8.30;6.50;;;;;;;;;;5019862;28;20346;-69
2023/04/10 08:47:50;;;;;;;6.97;5.65;;;;;;;;;;5021089;28;20462;-71
2023/04/10 08:50:16;;;;;;;6.40;5.18;;;;;;;;;;5020723;28;20487;-71
2023/04/10 08:52:44;;;;;;;7.85;6.38;;;;;;;;;;5019927;28;20056;-69
2023/04/10 08:55:11;;;;;;;6.35;5.35;;;;;;;;;;5019999;28;20490;-69
2023/04/10 08:57:37;;;;;;;9.45;6.22;;;;;;;;;;5020205;28;20589;-73
2023/04/10 09:00:03;;;;;;;8.02;5.80;;;;;;;;;;5020427;28;20056;-67
2023/04/10 09:02:29;;;;;;;8.00;5.85;;;;;;;;;;5021664;28;20052;-72
2023/04/10 09:04:59;;;;;;;8.38;6.50;;;;;;;;;;5020005;28;20057;-71
2023/04/10 09:07:25;;;;;;;7.82;6.32;;;;;;;;;;5021136;28;20105;-71
2023/04/10 09:09:51;;;;;;;8.48;6.78;;;;;;;;;;5020935;28;20049;-71
2023/04/10 09:12:16;;;;;;;8.98;7.05;;;;;;;;;;5020603;28;20096;-69
2023/04/10 09:14:42;;;;;;;7.47;5.93;;;;;;;;;;5019432;28;20417;-69
2023/04/10 09:17:13;;;;;;;7.95;6.10;;;;;;;;;;5019975;28;20049;-69
2023/04/10 09:19:39;;;;;;;7.25;5.32;;;;;;;;;;5020311;28;20486;-69
2023/04/10 09:22:05;;;;;;;6.82;5.88;;;;;;;;;;5020375;28;20105;-70
2023/04/10 09:24:36;;;;;;;6.57;5.80;;;;;;;;;;5020204;28;20051;-69
2023/04/10 09:27:01;;;;;;;6.90;5.53;;;;;;;;;;5020393;28;20057;-70
2023/04/10 09:29:38;;;;;;;6.35;5.40;;;;;;;;;;5019541;28;20113;-69
2023/04/10 09:32:03;;;;;;;6.68;5.53;;;;;;;;;;5020270;28;20502;-69
2023/04/10 09:34:28;;;;;;;7.85;6.30;;;;;;;;;;5020165;28;20056;-72
2023/04/10 09:37:00;;;;;;;6.53;5.20;;;;;;;;;;5019279;28;20084;-71
2023/04/10 09:39:43;;;;;;;6.10;5.22;;;;;;;;;;5018900;28;20524;-72
2023/04/10 09:42:10;;;;;;;6.32;4.80;;;;;;;;;;5019957;28;20052;-70
2023/04/10 09:44:38;;;;;;;4.97;4.47;;;;;;;;;;5019517;28;20832;-71
2023/04/10 09:47:13;;;;;;;6.32;4.93;;;;;;;;;;5020663;28;20054;-71
2023/04/10 09:49:48;;;;;;;6.10;5.13;;;;;;;;;;5020106;28;20836;-74
2023/04/10 09:52:26;;;;;;;5.43;4.43;;;;;;;;;;5018413;28;20524;-71
2023/04/10 09:54:59;;;;;;;6.32;4.82;;;;;;;;;;5018659;28;20068;-72
2023/04/10 09:57:27;;;;;;;5.97;5.07;;;;;;;;;;5019706;28;20045;-73
2023/04/10 09:59:54;;;;;;;5.93;4.57;;;;;;;;;;5019073;28;20060;-72
2023/04/10 10:02:21;;;;;;;5.32;4.63;;;;;;;;;;5020584;28;20417;-72
2023/04/10 10:04:48;;;;;;;5.93;5.00;;;;;;;;;;5023360;28;20045;-71
2023/04/10 10:07:15;;;;;;;5.97;5.07;;;;;;;;;;5023397;28;20077;-73
2023/04/10 10:09:42;;;;;;;7.40;5.20;;;;;;;;;;5023746;28;20049;-72
2023/04/10 10:12:10;;;;;;;6.38;5.28;;;;;;;;;;5023782;28;20065;-70
2023/04/10 10:15:00;;;;;;;4.72;4.07;;;;;;;;;;5022287;28;20120;-73
2023/04/10 10:17:31;;;;;;;6.40;5.32;;;;;;;;;;5023822;28;20052;-76
2023/04/10 10:20:03;;;;;;;5.47;4.88;;;;;;;;;;5021022;28;20198;-74
2023/04/10 10:22:29;;;;;;;4.18;3.67;;;;;;;;;;5036209;28;20033;-75
2023/04/10 10:24:58;;;;;;;5.07;4.22;;;;;;;;;;5019200;28;20410;-74
2023/04/10 10:27:26;;;;;;;4.93;4.40;;;;;;;;;;5021655;28;20045;-75
2023/04/10 10:29:53;;;;;;;5.00;4.32;;;;;;;;;;5021749;28;20721;-75
2023/04/10 10:32:20;;;;;;;4.55;3.97;;;;;;;;;;5021458;28;20095;-74
2023/04/10 10:34:46;;;;;;;4.63;4.15;;;;;;;;;;5020246;28;20306;-75
2023/04/10 10:37:12;;;;;;;3.55;3.25;;;;;;;;;;5022518;28;20041;-73
2023/04/10 10:39:47;;;;;;;4.53;3.63;;;;;;;;;;5023199;28;20041;-75
2023/04/10 10:42:40;;;;;;;4.90;4.25;;;;;;;;;;5038582;28;20041;-76
2023/04/10 10:45:11;;;;;;;4.72;3.70;;;;;;;;;;5004482;28;20053;-75
2023/04/10 10:47:44;;;;;;;4.40;3.40;;;;;;;;;;5023431;28;20060;-75
2023/04/10 10:50:09;;;;;;;4.35;3.83;;;;;;;;;;5019245;28;20482;-74
2023/04/10 10:52:45;;;;;;;4.57;4.00;;;;;;;;;;5021289;28;20098;-75
2023/04/10 10:55:27;;;;;;;4.50;3.92;;;;;;;;;;5020792;28;20410;-74
2023/04/10 10:58:01;;;;;;;3.97;3.58;;;;;;;;;;5021221;28;20354;-76
2023/04/10 11:00:49;;;;;;;3.97;3.58;;;;;;;;;;5022915;28;20199;-77
2023/04/10 11:03:15;;;;;;;4.43;3.88;;;;;;;;;;5021160;28;20052;-77
2023/04/10 11:05:51;;;;;;;3.55;3.22;;;;;;;;;;5022397;28;20045;-75
2023/04/10 11:08:17;;;;;;;4.53;3.75;;;;;;;;;;5021712;28;20049;-75
2023/04/10 11:11:02;;;;;;;3.97;3.53;;;;;;;;;;5021823;28;20048;-76
2023/04/10 11:13:27;;;;;;;3.83;3.35;;;;;;;;;;5020878;28;20075;-76
2023/04/10 11:15:57;;;;;;;4.60;3.53;;;;;;;;;;5021791;28;20034;-74
2023/04/10 11:18:47;;;;;;;5.30;3.78;;;;;;;;;;5021247;28;20095;-76
2023/04/10 11:21:22;;;;;;;4.22;3.83;;;;;;;;;;5019384;28;20045;-75
2023/04/10 11:23:54;;;;;;;3.58;3.28;;;;;;;;;;5022159;28;20080;-75
2023/04/10 11:26:42;;;;;;;4.10;3.42;;;;;;;;;;5021672;28;20156;-76
2023/04/10 11:29:16;;;;;;;4.00;3.60;;;;;;;;;;5021114;28;20049;-76
2023/04/10 11:32:01;;;;;;;3.60;3.20;;;;;;;;;;5022498;28;20195;-76
2023/04/10 11:34:29;;;;;;;3.85;3.42;;;;;;;;;;5021917;28;20052;-76
2023/04/10 11:36:55;;;;;;;3.67;2.97;;;;;;;;;;5021581;28;20053;-76
2023/04/10 11:39:21;;;;;;;4.03;3.63;;;;;;;;;;5022941;28;20697;-77
2023/04/10 11:41:51;;;;;;;4.35;3.50;;;;;;;;;;5020793;28;20064;-73
2023/04/10 11:44:25;;;;;;;4.18;3.10;;;;;;;;;;5022177;28;20136;-76
2023/04/10 11:46:51;;;;;;;3.33;3.03;;;;;;;;;;5021435;28;20037;-76
2023/04/10 11:49:22;;;;;;;3.03;2.72;;;;;;;;;;5021917;28;20069;-76
2023/04/10 11:51:49;;;;;;;3.35;3.05;;;;;;;;;;5020833;28;20553;-77
2023/04/10 11:54:16;;;;;;;2.97;2.70;;;;;;;;;;5021666;28;20057;-76
2023/04/10 11:56:44;;;;;;;3.20;2.53;;;;;;;;;;5021099;28;20132;-75
2023/04/10 11:59:12;;;;;;;3.35;3.00;;;;;;;;;;5021749;28;20167;-76
2023/04/10 12:01:41;;;;;;;3.40;3.10;;;;;;;;;;5021379;28;20046;-76
2023/04/10 12:04:17;;;;;;;4.13;3.50;;;;;;;;;;5018768;28;20064;-76
2023/04/10 12:06:47;;;;;;;2.95;2.72;;;;;;;;;;5021053;28;20087;-74
2023/04/10 12:09:14;;;;;;;3.15;2.85;;;;;;;;;;5021741;28;20179;-75
2023/04/10 12:11:48;;;;;;;3.25;2.95;;;;;;;;;;5022238;28;20110;-75
2023/04/10 12:14:14;;;;;;;3.38;3.08;;;;;;;;;;5020283;28;20601;-76
2023/04/10 12:16:39;;;;;;;5.25;3.42;;;;;;;;;;5020173;28;20056;-75
2023/04/10 12:19:05;;;;;;;2.80;2.55;;;;;;;;;;5021098;28;20060;-76
2023/04/10 12:21:34;;;;;;;3.47;3.17;;;;;;;;;;5021662;28;20037;-75
2023/04/10 12:23:59;;;;;;;3.28;2.97;;;;;;;;;;5019275;28;20049;-75
2023/04/10 12:26:25;;;;;;;3.55;3.22;;;;;;;;;;5019092;28;20191;-76
2023/04/10 12:28:56;;;;;;;2.60;2.40;;;;;;;;;;5019532;28;20045;-75
2023/04/10 12:31:31;;;;;;;2.60;2.25;;;;;;;;;;5019291;28;20053;-75
2023/04/10 12:33:58;;;;;;;3.63;3.20;;;;;;;;;;5019668;28;20147;-74
2023/04/10 12:36:28;;;;;;;4.15;3.60;;;;;;;;;;5019446;28;20037;-76
2023/04/10 12:38:57;;;;;;;4.30;3.17;;;;;;;;;;5020919;28;20080;-76
2023/04/10 12:41:26;;;;;;;3.97;3.53;;;;;;;;;;5022000;28;20052;-77
2023/04/10 12:43:52;;;;;;;3.90;3.50;;;;;;;;;;5021828;28;20140;-77
2023/04/10 12:46:36;;;;;;;3.45;3.15;;;;;;;;;;5021795;28;20042;-76
2023/04/10 12:49:13;;;;;;;5.15;3.08;;;;;;;;;;5021366;28;20049;-76
2023/04/10 12:51:51;;;;;;;4.40;3.45;;;;;;;;;;5021360;28;20899;-75
2023/04/10 12:54:31;;;;;;;3.72;3.33;;;;;;;;;;5021511;28;20045;-75
2023/04/10 12:56:56;;;;;;;4.13;2.88;;;;;;;;;;5021157;28;20053;-75
2023/04/10 12:59:22;;;;;;;4.35;3.78;;;;;;;;;;5020902;28;20458;-77
2023/04/10 13:01:48;;;;;;;3.42;3.13;;;;;;;;;;5021439;28;20072;-77
2023/04/10 13:04:13;;;;;;;3.63;3.33;;;;;;;;;;5014475;28;20418;-76
2023/04/10 13:06:46;;;;;;;3.17;2.92;;;;;;;;;;5018004;28;20037;-75
2023/04/10 13:09:12;;;;;;;3.28;2.97;;;;;;;;;;5017327;28;20455;-76
2023/04/10 13:11:38;;;;;;;3.92;3.00;;;;;;;;;;5017614;28;20049;-76
2023/04/10 13:14:04;;;;;;;3.63;3.28;;;;;;;;;;5018646;28;20053;-74
2023/04/10 13:16:29;;;;;;;3.47;3.05;;;;;;;;;;5018468;28;20045;-73
2023/04/10 13:18:55;;;;;;;3.35;3.03;;;;;;;;;;5017558;28;20874;-75
2023/04/10 13:21:24;;;;;;;4.97;3.10;;;;;;;;;;5016852;28;20132;-74
2023/04/10 13:23:50;;;;;;;3.38;3.05;;;;;;;;;;5018580;28;20053;-74
2023/04/10 13:26:16;;;;;;;3.58;2.92;;;;;;;;;;5018976;28;20049;-74
2023/04/10 13:28:42;;;;;;;3.10;2.80;;;;;;;;;;5016266;28;20060;-75
2023/04/10 13:31:07;;;;;;;2.63;2.40;;;;;;;;;;5018202;28;20078;-74
2023/04/10 13:33:32;;;;;;;3.38;2.70;;;;;;;;;;5018336;28;20053;-74
2023/04/10 13:35:58;;;;;;;3.35;3.05;;;;;;;;;;5018093;28;20107;-75
2023/04/10 13:38:23;;;;;;;2.75;2.50;;;;;;;;;;5018617;28;20055;-76
2023/04/10 13:40:48;;;;;;;3.45;2.67;;;;;;;;;;5017735;28;20049;-77
2023/04/10 13:43:14;;;;;;;3.08;2.78;;;;;;;;;;5017882;28;20069;-77
2023/04/10 13:45:40;;;;;;;3.10;2.58;;;;;;;;;;5018306;28;20124;-74
2023/04/10 13:48:06;;;;;;;3.20;2.90;;;;;;;;;;5018568;28;20943;-76
2023/04/10 13:50:32;;;;;;;2.90;2.60;;;;;;;;;;5018793;28;20049;-74
2023/04/10 13:52:58;;;;;;;2.97;2.70;;;;;;;;;;5017247;28;20053;-75
2023/04/10 13:55:24;;;;;;;2.90;2.65;;;;;;;;;;5018854;28;20041;-76
2023/04/10 13:57:49;;;;;;;2.70;2.50;;;;;;;;;;5018400;28;20045;-76
2023/04/10 14:00:15;;;;;;;2.80;2.58;;;;;;;;;;5018596;28;20072;-76
2023/04/10 14:02:40;;;;;;;3.38;2.92;;;;;;;;;;5016209;28;21230;-76
2023/04/10 14:05:06;;;;;;;2.95;2.72;;;;;;;;;;5017171;28;20123;-74
2023/04/10 14:07:32;;;;;;;3.65;3.33;;;;;;;;;;5018447;28;20085;-74
2023/04/10 14:09:58;;;;;;;2.95;2.65;;;;;;;;;;5018706;28;20091;-75
2023/04/10 14:12:24;;;;;;;3.67;3.00;;;;;;;;;;5018223;28;20053;-74
2023/04/10 14:14:49;;;;;;;4.63;2.58;;;;;;;;;;5016877;28;20053;-77
2023/04/10 14:17:15;;;;;;;2.38;2.17;;;;;;;;;;5017369;28;20076;-76
2023/04/10 14:19:41;;;;;;;2.88;2.58;;;;;;;;;;5017628;28;20046;-77
2023/04/10 14:22:06;;;;;;;2.80;2.30;;;;;;;;;;5018629;28;20046;-76
2023/04/10 14:24:32;;;;;;;2.90;2.45;;;;;;;;;;5018343;28;20041;-74
2023/04/10 14:27:00;;;;;;;2.70;2.10;;;;;;;;;;5017279;28;20714;-76
2023/04/10 14:29:25;;;;;;;2.38;2.10;;;;;;;;;;5018130;28;21152;-75
2023/04/10 14:31:51;;;;;;;2.60;2.40;;;;;;;;;;5017284;28;20041;-75
2023/04/10 14:34:17;;;;;;;3.03;2.72;;;;;;;;;;5018141;28;20615;-75
2023/04/10 14:36:42;;;;;;;2.47;2.28;;;;;;;;;;5016327;28;20042;-77
2023/04/10 14:39:08;;;;;;;3.25;2.80;;;;;;;;;;5017018;28;20502;-77
2023/04/10 14:41:33;;;;;;;3.03;2.72;;;;;;;;;;5018107;28;20125;-77
2023/04/10 14:43:58;;;;;;;2.78;2.58;;;;;;;;;;5018329;28;20099;-77
2023/04/10 14:46:26;;;;;;;2.75;2.53;;;;;;;;;;5018378;28;20042;-76
2023/04/10 14:48:52;;;;;;;2.80;2.60;;;;;;;;;;5019071;28;20060;-74
2023/04/10 14:51:18;;;;;;;2.80;2.47;;;;;;;;;;5021626;28;20071;-75